UAL1212 KSFO-MMPR
Flight info
| Callsign | UAL1212 |
|---|---|
| Flight time | N/A |
| Altitude | 37000 |
| Route | WESLA5 YYUNG DCT LAX DCT MZB J1 TIJ UT4 SANFE/N0458F390 UT4 LMM UJ3 MZT J141 OBRUG OBRUG1A |
| Aircraft | B738/M-SDE2E3FGHIRWXY/LB1 |
Departure
| Time | 2026-05-05 23:43 |
|---|---|
| Airport | San Francisco International Airport (KSFO) |
Arrival
| Time | N/A |
|---|---|
| Airport | Puerto Vallarta International Airport (MMPR) |
| Time | Latitude | Longitude | Altitude | Speed | Heading |
|---|---|---|---|---|---|
| 2026-05-05 23:01 | 37.61997 | -122.38683 | 15 ft | 0 kts | 300° |
| 2026-05-05 23:25 | 37.61994 | -122.38677 | 15 ft | 2 kts | 298° |
| 2026-05-05 23:26 | 37.61986 | -122.38655 | 15 ft | 3 kts | 286° |
| 2026-05-05 23:26 | 37.61982 | -122.38630 | 18 ft | 3 kts | 272° |
| 2026-05-05 23:26 | 37.61982 | -122.38605 | 17 ft | 3 kts | 266° |
| 2026-05-05 23:26 | 37.61983 | -122.38583 | 15 ft | 3 kts | 303° |
| 2026-05-05 23:27 | 37.61991 | -122.38576 | 15 ft | 3 kts | 15° |
| 2026-05-05 23:27 | 37.62005 | -122.38567 | 16 ft | 1 kts | 28° |
| 2026-05-05 23:33 | 37.62009 | -122.38564 | 15 ft | 2 kts | 28° |
| 2026-05-05 23:34 | 37.62034 | -122.38548 | 17 ft | 6 kts | 27° |
| 2026-05-05 23:34 | 37.62069 | -122.38513 | 19 ft | 7 kts | 55° |
| 2026-05-05 23:34 | 37.62069 | -122.38457 | 18 ft | 6 kts | 104° |
| 2026-05-05 23:34 | 37.62051 | -122.38407 | 19 ft | 6 kts | 117° |
| 2026-05-05 23:35 | 37.62031 | -122.38358 | 20 ft | 6 kts | 117° |
| 2026-05-05 23:35 | 37.62011 | -122.38309 | 21 ft | 7 kts | 117° |
| 2026-05-05 23:35 | 37.61983 | -122.38242 | 21 ft | 11 kts | 117° |
| 2026-05-05 23:35 | 37.61939 | -122.38138 | 20 ft | 15 kts | 119° |
| 2026-05-05 23:36 | 37.61891 | -122.38023 | 20 ft | 15 kts | 117° |
| 2026-05-05 23:36 | 37.61843 | -122.37906 | 18 ft | 16 kts | 115° |
| 2026-05-05 23:36 | 37.61802 | -122.37778 | 16 ft | 16 kts | 111° |
| 2026-05-05 23:36 | 37.61763 | -122.37652 | 18 ft | 15 kts | 111° |
| 2026-05-05 23:37 | 37.61725 | -122.37532 | 19 ft | 14 kts | 113° |
| 2026-05-05 23:37 | 37.61683 | -122.37426 | 21 ft | 13 kts | 118° |
| 2026-05-05 23:37 | 37.61642 | -122.37326 | 23 ft | 13 kts | 116° |
| 2026-05-05 23:37 | 37.61601 | -122.37229 | 23 ft | 13 kts | 117° |
| 2026-05-05 23:38 | 37.61557 | -122.37124 | 21 ft | 14 kts | 118° |
| 2026-05-05 23:38 | 37.61512 | -122.37018 | 22 ft | 13 kts | 118° |
| 2026-05-05 23:38 | 37.61459 | -122.36920 | 21 ft | 14 kts | 131° |
| 2026-05-05 23:38 | 37.61390 | -122.36818 | 19 ft | 16 kts | 129° |
| 2026-05-05 23:39 | 37.61331 | -122.36695 | 20 ft | 16 kts | 119° |
| 2026-05-05 23:39 | 37.61274 | -122.36565 | 18 ft | 18 kts | 115° |
| 2026-05-05 23:39 | 37.61217 | -122.36426 | 18 ft | 18 kts | 118° |
| 2026-05-05 23:39 | 37.61162 | -122.36294 | 19 ft | 17 kts | 118° |
| 2026-05-05 23:40 | 37.61110 | -122.36171 | 19 ft | 11 kts | 118° |
| 2026-05-05 23:40 | 37.61118 | -122.36099 | 20 ft | 9 kts | 45° |
| 2026-05-05 23:40 | 37.61164 | -122.36066 | 21 ft | 3 kts | 28° |
| 2026-05-05 23:40 | 37.61165 | -122.36066 | 20 ft | 0 kts | 28° |
| 2026-05-05 23:41 | 37.61165 | -122.36065 | 20 ft | 1 kts | 28° |
| 2026-05-05 23:42 | 37.61185 | -122.36052 | 18 ft | 7 kts | 28° |
| 2026-05-05 23:42 | 37.61245 | -122.36035 | 19 ft | 10 kts | 334° |
| 2026-05-05 23:42 | 37.61283 | -122.36110 | 18 ft | 10 kts | 298° |
| 2026-05-05 23:42 | 37.61363 | -122.36298 | 15 ft | 45 kts | 298° |
| 2026-05-05 23:43 | 37.61624 | -122.36919 | 23 ft | 111 kts | 298° |
| 2026-05-05 23:43 | 37.62070 | -122.37976 | 108 ft | 153 kts | 297° |
| 2026-05-05 23:43 | 37.62574 | -122.39148 | 709 ft | 154 kts | 297° |
| 2026-05-05 23:43 | 37.63096 | -122.40394 | 1282 ft | 166 kts | 296° |
| 2026-05-05 23:44 | 37.63646 | -122.41691 | 1925 ft | 176 kts | 297° |
| 2026-05-05 23:44 | 37.64273 | -122.43138 | 2264 ft | 200 kts | 298° |
| 2026-05-05 23:44 | 37.64994 | -122.44768 | 2501 ft | 225 kts | 298° |
| 2026-05-05 23:44 | 37.65770 | -122.46538 | 2966 ft | 234 kts | 298° |
| 2026-05-05 23:45 | 37.66569 | -122.48358 | 3663 ft | 243 kts | 298° |
| 2026-05-05 23:45 | 37.67094 | -122.50420 | 4320 ft | 257 kts | 271° |
| 2026-05-05 23:45 | 37.66605 | -122.52574 | 5001 ft | 267 kts | 238° |
| 2026-05-05 23:45 | 37.65184 | -122.54145 | 5516 ft | 283 kts | 204° |
| 2026-05-05 23:46 | 37.63270 | -122.54585 | 6491 ft | 278 kts | 178° |
| 2026-05-05 23:46 | 37.61393 | -122.54142 | 7329 ft | 278 kts | 158° |
| 2026-05-05 23:46 | 37.59592 | -122.53111 | 7855 ft | 290 kts | 153° |
| 2026-05-05 23:46 | 37.57742 | -122.52031 | 8531 ft | 296 kts | 155° |
| 2026-05-05 23:47 | 37.55832 | -122.51004 | 9280 ft | 301 kts | 155° |
| 2026-05-05 23:47 | 37.53882 | -122.49987 | 10020 ft | 305 kts | 156° |
| 2026-05-05 23:47 | 37.51885 | -122.48955 | 10451 ft | 320 kts | 156° |
| 2026-05-05 23:47 | 37.49731 | -122.47902 | 10611 ft | 344 kts | 163° |
| 2026-05-05 23:48 | 37.47270 | -122.47662 | 10796 ft | 366 kts | 186° |
| 2026-05-05 23:48 | 37.44714 | -122.48097 | 11281 ft | 375 kts | 188° |
| 2026-05-05 23:48 | 37.42120 | -122.48615 | 11919 ft | 379 kts | 189° |
| 2026-05-05 23:48 | 37.39497 | -122.49148 | 12623 ft | 382 kts | 189° |
| 2026-05-05 23:49 | 37.36851 | -122.49675 | 13318 ft | 387 kts | 188° |
| 2026-05-05 23:49 | 37.34217 | -122.50187 | 13996 ft | 391 kts | 188° |
| 2026-05-05 23:49 | 37.31485 | -122.50706 | 14638 ft | 395 kts | 188° |
| 2026-05-05 23:49 | 37.28777 | -122.51213 | 15280 ft | 399 kts | 188° |
| 2026-05-05 23:50 | 37.26017 | -122.51726 | 15949 ft | 403 kts | 188° |
| 2026-05-05 23:50 | 37.23235 | -122.52242 | 16609 ft | 406 kts | 187° |
| 2026-05-05 23:50 | 37.20414 | -122.52764 | 17228 ft | 411 kts | 187° |
| 2026-05-05 23:50 | 37.17572 | -122.53289 | 17848 ft | 416 kts | 187° |
| 2026-05-05 23:51 | 37.14684 | -122.53823 | 18469 ft | 420 kts | 187° |
| 2026-05-05 23:51 | 37.11774 | -122.54361 | 19016 ft | 424 kts | 187° |
| 2026-05-05 23:51 | 37.08879 | -122.54895 | 19552 ft | 428 kts | 187° |
| 2026-05-05 23:51 | 37.05878 | -122.55449 | 20074 ft | 433 kts | 187° |
| 2026-05-05 23:52 | 37.02887 | -122.55935 | 20601 ft | 435 kts | 180° |
| 2026-05-05 23:52 | 36.99887 | -122.55529 | 21104 ft | 433 kts | 161° |
| 2026-05-05 23:52 | 36.97181 | -122.54086 | 21643 ft | 427 kts | 146° |
| 2026-05-05 23:52 | 36.94613 | -122.52203 | 22195 ft | 429 kts | 144° |
| 2026-05-05 23:53 | 36.92035 | -122.50256 | 22707 ft | 432 kts | 144° |
| 2026-05-05 23:53 | 36.89457 | -122.48301 | 23208 ft | 435 kts | 144° |
| 2026-05-05 23:53 | 36.86854 | -122.46341 | 23699 ft | 438 kts | 144° |
| 2026-05-05 23:53 | 36.84222 | -122.44377 | 24122 ft | 441 kts | 144° |
| 2026-05-05 23:54 | 36.81568 | -122.42414 | 24547 ft | 443 kts | 144° |
| 2026-05-05 23:54 | 36.78905 | -122.40455 | 24971 ft | 445 kts | 144° |
| 2026-05-05 23:54 | 36.76223 | -122.38489 | 25375 ft | 448 kts | 144° |
| 2026-05-05 23:54 | 36.73563 | -122.36544 | 25763 ft | 450 kts | 144° |
| 2026-05-05 23:55 | 36.70851 | -122.34562 | 26158 ft | 452 kts | 144° |
| 2026-05-05 23:55 | 36.68128 | -122.32575 | 26546 ft | 454 kts | 144° |
| 2026-05-05 23:55 | 36.65390 | -122.30577 | 26912 ft | 457 kts | 144° |
| 2026-05-05 23:55 | 36.62632 | -122.28566 | 27279 ft | 459 kts | 144° |
| 2026-05-05 23:56 | 36.59871 | -122.26554 | 27653 ft | 461 kts | 143° |
| 2026-05-05 23:56 | 36.57105 | -122.24540 | 27998 ft | 463 kts | 143° |
| 2026-05-05 23:56 | 36.54313 | -122.22510 | 28339 ft | 465 kts | 143° |
| 2026-05-05 23:56 | 36.51537 | -122.20491 | 28672 ft | 467 kts | 143° |
| 2026-05-05 23:57 | 36.48733 | -122.18455 | 29009 ft | 469 kts | 143° |
| 2026-05-05 23:57 | 36.45906 | -122.16404 | 29342 ft | 470 kts | 143° |
| 2026-05-05 23:57 | 36.43072 | -122.14349 | 29658 ft | 472 kts | 143° |
| 2026-05-05 23:57 | 36.40228 | -122.12289 | 29992 ft | 473 kts | 143° |
| 2026-05-05 23:58 | 36.37388 | -122.10234 | 30334 ft | 473 kts | 143° |
| 2026-05-05 23:58 | 36.34536 | -122.08174 | 30719 ft | 472 kts | 143° |
| 2026-05-05 23:58 | 36.31704 | -122.06130 | 31089 ft | 470 kts | 142° |
| 2026-05-05 23:58 | 36.28883 | -122.04095 | 31415 ft | 470 kts | 142° |
| 2026-05-05 23:59 | 36.26052 | -122.02052 | 31707 ft | 470 kts | 142° |
| 2026-05-05 23:59 | 36.23224 | -122.00013 | 32037 ft | 470 kts | 142° |
| 2026-05-05 23:59 | 36.20397 | -121.97977 | 32372 ft | 469 kts | 142° |
| 2026-05-05 23:59 | 36.17578 | -121.95948 | 32698 ft | 469 kts | 142° |
| 2026-05-06 00:00 | 36.14790 | -121.93943 | 32985 ft | 469 kts | 142° |
| 2026-05-06 00:00 | 36.11966 | -121.91914 | 33288 ft | 469 kts | 142° |
| 2026-05-06 00:00 | 36.09148 | -121.89891 | 33606 ft | 468 kts | 142° |
| 2026-05-06 00:00 | 36.06336 | -121.87874 | 33907 ft | 468 kts | 142° |
| 2026-05-06 00:01 | 36.03516 | -121.85852 | 34163 ft | 468 kts | 142° |
| 2026-05-06 00:01 | 36.00733 | -121.83785 | 34394 ft | 463 kts | 137° |
| 2026-05-06 00:01 | 35.98437 | -121.81116 | 34585 ft | 446 kts | 121° |
| 2026-05-06 00:01 | 35.97623 | -121.79833 | 34711 ft | 444 kts | 120° |
| 2026-05-06 00:02 | 35.96640 | -121.78250 | 34850 ft | 443 kts | 120° |
| 2026-05-06 00:02 | 35.94777 | -121.75213 | 35042 ft | 444 kts | 120° |
| 2026-05-06 00:02 | 35.92912 | -121.72162 | 35213 ft | 446 kts | 120° |
| 2026-05-06 00:02 | 35.91036 | -121.69116 | 35441 ft | 446 kts | 120° |
| 2026-05-06 00:03 | 35.89784 | -121.67097 | 35589 ft | 446 kts | 120° |
| 2026-05-06 00:03 | 35.87890 | -121.64064 | 35788 ft | 447 kts | 121° |
| 2026-05-06 00:03 | 35.85987 | -121.61034 | 35976 ft | 448 kts | 121° |
| 2026-05-06 00:03 | 35.84065 | -121.57984 | 36182 ft | 449 kts | 121° |
| 2026-05-06 00:04 | 35.82147 | -121.54948 | 36396 ft | 449 kts | 121° |
| 2026-05-06 00:04 | 35.80236 | -121.51925 | 36597 ft | 449 kts | 121° |
| 2026-05-06 00:04 | 35.78304 | -121.48870 | 36743 ft | 451 kts | 122° |
| 2026-05-06 00:04 | 35.76373 | -121.45818 | 36900 ft | 452 kts | 122° |
| 2026-05-06 00:05 | 35.72522 | -121.39741 | 37066 ft | 455 kts | 122° |
| 2026-05-06 00:05 | 35.70566 | -121.36657 | 37077 ft | 456 kts | 122° |
| 2026-05-06 00:06 | 35.66676 | -121.30540 | 37065 ft | 451 kts | 122° |
| 2026-05-06 00:06 | 35.62812 | -121.24470 | 37078 ft | 449 kts | 122° |
| 2026-05-06 00:07 | 35.58967 | -121.18435 | 37074 ft | 448 kts | 122° |
| 2026-05-06 00:07 | 35.55147 | -121.12449 | 37075 ft | 448 kts | 122° |
| 2026-05-06 00:08 | 35.51287 | -121.06410 | 37088 ft | 452 kts | 122° |
| 2026-05-06 00:08 | 35.47555 | -121.00137 | 37081 ft | 456 kts | 119° |
| 2026-05-06 00:09 | 35.43907 | -120.93732 | 37077 ft | 460 kts | 119° |
| 2026-05-06 00:09 | 35.40217 | -120.87298 | 37057 ft | 462 kts | 120° |
| 2026-05-06 00:10 | 35.36609 | -120.81075 | 37059 ft | 463 kts | 120° |
| 2026-05-06 00:10 | 35.32861 | -120.74648 | 37049 ft | 462 kts | 120° |
| 2026-05-06 00:11 | 35.29116 | -120.68240 | 37040 ft | 461 kts | 120° |
| 2026-05-06 00:11 | 35.25404 | -120.61900 | 37047 ft | 460 kts | 120° |
| 2026-05-06 00:12 | 35.21677 | -120.55543 | 37041 ft | 459 kts | 121° |
| 2026-05-06 00:12 | 35.17960 | -120.49213 | 37053 ft | 457 kts | 121° |
| 2026-05-06 00:13 | 35.14244 | -120.42895 | 37061 ft | 458 kts | 121° |
| 2026-05-06 00:13 | 35.10519 | -120.36574 | 37063 ft | 459 kts | 121° |
| 2026-05-06 00:14 | 35.06781 | -120.30241 | 37061 ft | 461 kts | 121° |
| 2026-05-06 00:14 | 35.03040 | -120.23915 | 37058 ft | 463 kts | 121° |
| 2026-05-06 00:15 | 34.99258 | -120.17531 | 37046 ft | 464 kts | 121° |
| 2026-05-06 00:15 | 34.95461 | -120.11136 | 37044 ft | 465 kts | 122° |
| 2026-05-06 00:16 | 34.91656 | -120.04739 | 37039 ft | 467 kts | 122° |
| 2026-05-06 00:16 | 34.87857 | -119.98362 | 37032 ft | 468 kts | 122° |
| 2026-05-06 00:17 | 34.84012 | -119.91919 | 37023 ft | 470 kts | 122° |
| 2026-05-06 00:17 | 34.80161 | -119.85479 | 37025 ft | 471 kts | 122° |
| 2026-05-06 00:18 | 34.76312 | -119.79053 | 37021 ft | 473 kts | 122° |
| 2026-05-06 00:18 | 34.72418 | -119.72564 | 37008 ft | 474 kts | 123° |
| 2026-05-06 00:19 | 34.68548 | -119.66127 | 37004 ft | 475 kts | 123° |
| 2026-05-06 00:19 | 34.64632 | -119.59625 | 36995 ft | 476 kts | 123° |
| 2026-05-06 00:20 | 34.60719 | -119.53141 | 37002 ft | 476 kts | 123° |
| 2026-05-06 00:20 | 34.56793 | -119.46646 | 36982 ft | 476 kts | 124° |
| 2026-05-06 00:21 | 34.52891 | -119.40203 | 36997 ft | 476 kts | 124° |
| 2026-05-06 00:21 | 34.48968 | -119.33737 | 37007 ft | 476 kts | 124° |
| 2026-05-06 00:22 | 34.45032 | -119.27261 | 37016 ft | 477 kts | 124° |
| 2026-05-06 00:22 | 34.41088 | -119.20782 | 37028 ft | 477 kts | 125° |
| 2026-05-06 00:23 | 34.37169 | -119.14358 | 37015 ft | 477 kts | 125° |
| 2026-05-06 00:23 | 34.33219 | -119.07894 | 37015 ft | 477 kts | 125° |
| 2026-05-06 00:24 | 34.29265 | -119.01435 | 37023 ft | 478 kts | 125° |
| 2026-05-06 00:24 | 34.25298 | -118.94966 | 37028 ft | 479 kts | 126° |
| 2026-05-06 00:25 | 34.21307 | -118.88470 | 37036 ft | 480 kts | 126° |
| 2026-05-06 00:25 | 34.17520 | -118.82317 | 37023 ft | 482 kts | 126° |
| 2026-05-06 00:26 | 34.13503 | -118.75801 | 37022 ft | 484 kts | 126° |
| 2026-05-06 00:26 | 34.09467 | -118.69265 | 37009 ft | 486 kts | 126° |
| 2026-05-06 00:27 | 34.05441 | -118.62759 | 37022 ft | 487 kts | 126° |
| 2026-05-06 00:27 | 34.01373 | -118.56195 | 37032 ft | 488 kts | 126° |
| 2026-05-06 00:28 | 33.97294 | -118.49624 | 37032 ft | 489 kts | 127° |
| 2026-05-06 00:28 | 33.93175 | -118.43148 | 37022 ft | 489 kts | 131° |
| 2026-05-06 00:29 | 33.88231 | -118.37558 | 37035 ft | 488 kts | 140° |
| 2026-05-06 00:29 | 33.83077 | -118.32206 | 37034 ft | 487 kts | 140° |
| 2026-05-06 00:30 | 33.77999 | -118.26897 | 37033 ft | 487 kts | 140° |
| 2026-05-06 00:30 | 33.72897 | -118.21502 | 37014 ft | 486 kts | 140° |
| 2026-05-06 00:31 | 33.67829 | -118.16124 | 37020 ft | 485 kts | 140° |
| 2026-05-06 00:31 | 33.62802 | -118.10797 | 37002 ft | 485 kts | 140° |
| 2026-05-06 00:32 | 33.57736 | -118.05442 | 37036 ft | 484 kts | 140° |
| 2026-05-06 00:32 | 33.52687 | -118.00114 | 37029 ft | 483 kts | 141° |
| 2026-05-06 00:33 | 33.47634 | -117.94792 | 37032 ft | 483 kts | 141° |
| 2026-05-06 00:33 | 33.42608 | -117.89506 | 37031 ft | 483 kts | 141° |
| 2026-05-06 00:34 | 33.37542 | -117.84188 | 37031 ft | 483 kts | 141° |
| 2026-05-06 00:34 | 33.32518 | -117.78920 | 37031 ft | 483 kts | 142° |
| 2026-05-06 00:35 | 33.27460 | -117.73627 | 37038 ft | 483 kts | 142° |
| 2026-05-06 00:35 | 33.22398 | -117.68337 | 37039 ft | 483 kts | 142° |
| 2026-05-06 00:36 | 33.17338 | -117.63059 | 37044 ft | 483 kts | 143° |
| 2026-05-06 00:36 | 33.12296 | -117.57807 | 37042 ft | 484 kts | 143° |
| 2026-05-06 00:37 | 33.07218 | -117.52525 | 37044 ft | 485 kts | 143° |
| 2026-05-06 00:37 | 33.02129 | -117.47241 | 37037 ft | 485 kts | 143° |
| 2026-05-06 00:38 | 32.97086 | -117.42013 | 37038 ft | 486 kts | 144° |
| 2026-05-06 00:38 | 32.91970 | -117.36717 | 37048 ft | 487 kts | 144° |
| 2026-05-06 00:39 | 32.86843 | -117.31418 | 37048 ft | 488 kts | 144° |
| 2026-05-06 00:39 | 32.81745 | -117.26156 | 37061 ft | 490 kts | 144° |
| 2026-05-06 00:40 | 32.76584 | -117.20798 | 37064 ft | 492 kts | 142° |
| 2026-05-06 00:40 | 32.71600 | -117.15156 | 37077 ft | 495 kts | 141° |
| 2026-05-06 00:41 | 32.66668 | -117.09497 | 37068 ft | 495 kts | 141° |
| 2026-05-06 00:41 | 32.61671 | -117.03863 | 37047 ft | 496 kts | 142° |
| 2026-05-06 00:42 | 32.56650 | -116.98248 | 37041 ft | 496 kts | 142° |
| 2026-05-06 00:42 | 32.51726 | -116.92582 | 37065 ft | 498 kts | 139° |
| 2026-05-06 00:43 | 32.47023 | -116.86555 | 37061 ft | 498 kts | 137° |
| 2026-05-06 00:43 | 32.42363 | -116.80500 | 37055 ft | 496 kts | 138° |
| 2026-05-06 00:44 | 32.37678 | -116.74506 | 37060 ft | 495 kts | 139° |
| 2026-05-06 00:44 | 32.32983 | -116.68552 | 37047 ft | 493 kts | 139° |
| 2026-05-06 00:45 | 32.28306 | -116.62630 | 37037 ft | 492 kts | 140° |
| 2026-05-06 00:45 | 32.23659 | -116.56751 | 37035 ft | 491 kts | 140° |
| 2026-05-06 00:46 | 32.18989 | -116.50851 | 37041 ft | 490 kts | 140° |
| 2026-05-06 00:46 | 32.14319 | -116.44959 | 37043 ft | 490 kts | 141° |
| 2026-05-06 00:47 | 32.09667 | -116.39096 | 37045 ft | 492 kts | 141° |
| 2026-05-06 00:47 | 32.04980 | -116.33197 | 37047 ft | 494 kts | 141° |
| 2026-05-06 00:48 | 32.00261 | -116.27268 | 37041 ft | 495 kts | 141° |
| 2026-05-06 00:48 | 31.95567 | -116.21376 | 37038 ft | 497 kts | 141° |
| 2026-05-06 00:49 | 31.90826 | -116.15435 | 37036 ft | 497 kts | 142° |
| 2026-05-06 00:49 | 31.86076 | -116.09493 | 37035 ft | 498 kts | 142° |
| 2026-05-06 00:50 | 31.81327 | -116.03561 | 37016 ft | 498 kts | 142° |
| 2026-05-06 00:50 | 31.76900 | -115.98037 | 37007 ft | 495 kts | 142° |
| 2026-05-06 00:51 | 31.72199 | -115.92187 | 37006 ft | 490 kts | 143° |
| 2026-05-06 00:51 | 31.67512 | -115.86383 | 37006 ft | 488 kts | 143° |
| 2026-05-06 00:52 | 31.62845 | -115.80616 | 37006 ft | 487 kts | 143° |
| 2026-05-06 00:52 | 31.58183 | -115.74863 | 36999 ft | 486 kts | 144° |
| 2026-05-06 00:53 | 31.54298 | -115.70075 | 37003 ft | 488 kts | 144° |
| 2026-05-06 00:53 | 31.49574 | -115.64265 | 37170 ft | 494 kts | 144° |
| 2026-05-06 00:53 | 31.46438 | -115.60407 | 37547 ft | 492 kts | 143° |
| 2026-05-06 00:54 | 31.44847 | -115.58446 | 37740 ft | 490 kts | 143° |
| 2026-05-06 00:54 | 31.42505 | -115.55565 | 37964 ft | 490 kts | 143° |
| 2026-05-06 00:54 | 31.40153 | -115.52675 | 38178 ft | 489 kts | 143° |
| 2026-05-06 00:54 | 31.37808 | -115.49798 | 38393 ft | 489 kts | 143° |
| 2026-05-06 00:55 | 31.35457 | -115.46917 | 38600 ft | 488 kts | 143° |
| 2026-05-06 00:55 | 31.33118 | -115.44050 | 38762 ft | 486 kts | 144° |
| 2026-05-06 00:55 | 31.30815 | -115.41229 | 38922 ft | 485 kts | 144° |
| 2026-05-06 00:56 | 31.26121 | -115.35503 | 38964 ft | 488 kts | 144° |
| 2026-05-06 00:56 | 31.21426 | -115.29777 | 38954 ft | 488 kts | 144° |
| 2026-05-06 00:57 | 31.16728 | -115.24051 | 38949 ft | 488 kts | 144° |
| 2026-05-06 00:57 | 31.12054 | -115.18362 | 38941 ft | 488 kts | 144° |
| 2026-05-06 00:58 | 31.07354 | -115.12652 | 38947 ft | 487 kts | 144° |
| 2026-05-06 00:58 | 31.02675 | -115.06973 | 38942 ft | 484 kts | 145° |
| 2026-05-06 00:59 | 30.98018 | -115.01334 | 38934 ft | 482 kts | 145° |
| 2026-05-06 00:59 | 30.93350 | -114.95689 | 38936 ft | 482 kts | 145° |
| 2026-05-06 01:00 | 30.88724 | -114.90104 | 38923 ft | 481 kts | 145° |
| 2026-05-06 01:00 | 30.84073 | -114.84494 | 38918 ft | 480 kts | 146° |
| 2026-05-06 01:01 | 30.79430 | -114.78901 | 38914 ft | 480 kts | 146° |
| 2026-05-06 01:01 | 30.74782 | -114.73309 | 38914 ft | 480 kts | 146° |
| 2026-05-06 01:02 | 30.70146 | -114.67739 | 38921 ft | 479 kts | 146° |
| 2026-05-06 01:02 | 30.65504 | -114.62172 | 38918 ft | 480 kts | 146° |
| 2026-05-06 01:03 | 30.60854 | -114.56602 | 38925 ft | 480 kts | 146° |
| 2026-05-06 01:03 | 30.56228 | -114.51068 | 38923 ft | 480 kts | 146° |
| 2026-05-06 01:04 | 30.51566 | -114.45500 | 38917 ft | 481 kts | 146° |
| 2026-05-06 01:04 | 30.46901 | -114.39936 | 38917 ft | 480 kts | 147° |
| 2026-05-06 01:05 | 30.42245 | -114.34391 | 38917 ft | 480 kts | 147° |
| 2026-05-06 01:05 | 30.37583 | -114.28845 | 38916 ft | 479 kts | 147° |
| 2026-05-06 01:06 | 30.32952 | -114.23345 | 38920 ft | 478 kts | 147° |
| 2026-05-06 01:06 | 30.28310 | -114.17840 | 38913 ft | 477 kts | 147° |
| 2026-05-06 01:07 | 30.23683 | -114.12360 | 38914 ft | 475 kts | 148° |
| 2026-05-06 01:07 | 30.19067 | -114.06901 | 38908 ft | 473 kts | 148° |
| 2026-05-06 01:08 | 30.14474 | -114.01461 | 38911 ft | 470 kts | 153° |
| 2026-05-06 01:08 | 30.11954 | -113.99577 | 38854 ft | 403 kts | 189° |
| 2026-05-06 01:08 | 30.09271 | -113.99681 | 38098 ft | 394 kts | 195° |
| 2026-05-06 01:08 | 30.06470 | -113.99459 | 37427 ft | 413 kts | 184° |
| 2026-05-06 01:09 | 30.03695 | -113.98332 | 37084 ft | 437 kts | 167° |
| 2026-05-06 01:09 | 30.01205 | -113.96137 | 36929 ft | 469 kts | 148° |
| 2026-05-06 01:09 | 29.99287 | -113.92941 | 36810 ft | 502 kts | 129° |
| 2026-05-06 01:09 | 29.98073 | -113.89075 | 36935 ft | 520 kts | 120° |
| 2026-05-06 01:10 | 29.97094 | -113.85049 | 37102 ft | 520 kts | 121° |
| 2026-05-06 01:10 | 29.95854 | -113.81210 | 37239 ft | 504 kts | 131° |
| 2026-05-06 01:10 | 29.94099 | -113.77804 | 37305 ft | 485 kts | 143° |
| 2026-05-06 01:10 | 29.91972 | -113.74847 | 37338 ft | 474 kts | 150° |
| 2026-05-06 01:11 | 29.89676 | -113.72168 | 37442 ft | 468 kts | 153° |
| 2026-05-06 01:11 | 29.87357 | -113.69600 | 37668 ft | 466 kts | 153° |
| 2026-05-06 01:11 | 29.85038 | -113.66996 | 37896 ft | 466 kts | 152° |
| 2026-05-06 01:11 | 29.82755 | -113.64359 | 38120 ft | 465 kts | 152° |
| 2026-05-06 01:12 | 29.80484 | -113.61711 | 38304 ft | 464 kts | 152° |
| 2026-05-06 01:12 | 29.78211 | -113.59083 | 38447 ft | 462 kts | 153° |
| 2026-05-06 01:12 | 29.75928 | -113.56480 | 38582 ft | 462 kts | 153° |
| 2026-05-06 01:12 | 29.73646 | -113.53877 | 38712 ft | 461 kts | 153° |
| 2026-05-06 01:13 | 29.71374 | -113.51274 | 38822 ft | 460 kts | 153° |
| 2026-05-06 01:13 | 29.66855 | -113.46059 | 38938 ft | 461 kts | 152° |
| 2026-05-06 01:14 | 29.60050 | -113.38168 | 38946 ft | 465 kts | 152° |
| 2026-05-06 01:14 | 29.55496 | -113.32883 | 38942 ft | 466 kts | 152° |
| 2026-05-06 01:15 | 29.50946 | -113.27610 | 38940 ft | 467 kts | 152° |
| 2026-05-06 01:15 | 29.46373 | -113.22316 | 38943 ft | 466 kts | 152° |
| 2026-05-06 01:16 | 29.41807 | -113.17039 | 38936 ft | 465 kts | 152° |
| 2026-05-06 01:16 | 29.37255 | -113.11786 | 38938 ft | 463 kts | 152° |
| 2026-05-06 01:17 | 29.32726 | -113.06568 | 38943 ft | 461 kts | 152° |
| 2026-05-06 01:17 | 29.28201 | -113.01363 | 38942 ft | 459 kts | 152° |
| 2026-05-06 01:18 | 29.23704 | -112.96198 | 38937 ft | 457 kts | 153° |
| 2026-05-06 01:18 | 29.19241 | -112.91078 | 38942 ft | 455 kts | 153° |
| 2026-05-06 01:19 | 29.14744 | -112.85927 | 38936 ft | 454 kts | 153° |
| 2026-05-06 01:19 | 29.10301 | -112.80847 | 38939 ft | 454 kts | 153° |
| 2026-05-06 01:20 | 29.05837 | -112.75748 | 38945 ft | 454 kts | 153° |
| 2026-05-06 01:20 | 29.01347 | -112.70626 | 38944 ft | 456 kts | 153° |
| 2026-05-06 01:21 | 28.96848 | -112.65502 | 38949 ft | 457 kts | 153° |
| 2026-05-06 01:21 | 28.92331 | -112.60362 | 38948 ft | 460 kts | 153° |
| 2026-05-06 01:22 | 28.87782 | -112.55193 | 38945 ft | 463 kts | 153° |
| 2026-05-06 01:22 | 28.83202 | -112.49995 | 38949 ft | 466 kts | 152° |
| 2026-05-06 01:23 | 28.78624 | -112.44802 | 38936 ft | 468 kts | 152° |
| 2026-05-06 01:23 | 28.74009 | -112.39570 | 38934 ft | 467 kts | 152° |
| 2026-05-06 01:24 | 28.69521 | -112.34211 | 39006 ft | 467 kts | 148° |
| 2026-05-06 01:24 | 28.64950 | -112.28958 | 38947 ft | 465 kts | 149° |
| 2026-05-06 01:25 | 28.60362 | -112.23788 | 38935 ft | 464 kts | 149° |
| 2026-05-06 01:25 | 28.55795 | -112.18661 | 38931 ft | 462 kts | 149° |
| 2026-05-06 01:26 | 28.51221 | -112.13525 | 38932 ft | 462 kts | 149° |
| 2026-05-06 01:26 | 28.46648 | -112.08391 | 38935 ft | 462 kts | 149° |
| 2026-05-06 01:27 | 28.42060 | -112.03244 | 38946 ft | 463 kts | 149° |
| 2026-05-06 01:27 | 28.37465 | -111.98097 | 38947 ft | 465 kts | 149° |
| 2026-05-06 01:28 | 28.32844 | -111.92927 | 38944 ft | 467 kts | 149° |
| 2026-05-06 01:28 | 28.28204 | -111.87741 | 38941 ft | 468 kts | 149° |
| 2026-05-06 01:29 | 28.23554 | -111.82551 | 38942 ft | 470 kts | 149° |
| 2026-05-06 01:29 | 28.18908 | -111.77371 | 38941 ft | 471 kts | 149° |
| 2026-05-06 01:30 | 28.14229 | -111.72160 | 38940 ft | 472 kts | 149° |
| 2026-05-06 01:30 | 28.09532 | -111.66936 | 38940 ft | 473 kts | 149° |
| 2026-05-06 01:31 | 28.04830 | -111.61713 | 38938 ft | 473 kts | 149° |
| 2026-05-06 01:31 | 28.00137 | -111.56507 | 38933 ft | 473 kts | 149° |
| 2026-05-06 01:32 | 27.95467 | -111.51333 | 38931 ft | 472 kts | 149° |
| 2026-05-06 01:32 | 27.90777 | -111.46144 | 38928 ft | 471 kts | 149° |
| 2026-05-06 01:33 | 27.86097 | -111.40973 | 38927 ft | 470 kts | 149° |
| 2026-05-06 01:33 | 27.81420 | -111.35813 | 38931 ft | 468 kts | 149° |
| 2026-05-06 01:34 | 27.76759 | -111.30676 | 38924 ft | 467 kts | 149° |
| 2026-05-06 01:34 | 27.75568 | -111.29364 | 38926 ft | 467 kts | 149° |
| 2026-05-06 01:36 | 27.72553 | -111.26044 | 38921 ft | 465 kts | 149° |
| 2026-05-06 01:36 | 27.67935 | -111.20971 | 38932 ft | 467 kts | 149° |
| 2026-05-06 01:37 | 27.63267 | -111.15851 | 38928 ft | 468 kts | 149° |
| 2026-05-06 01:37 | 27.58609 | -111.10741 | 38922 ft | 467 kts | 149° |
| 2026-05-06 01:38 | 27.53966 | -111.05652 | 38924 ft | 465 kts | 149° |
| 2026-05-06 01:38 | 27.49324 | -111.00574 | 38929 ft | 464 kts | 149° |
| 2026-05-06 01:39 | 27.44694 | -110.95514 | 38925 ft | 463 kts | 149° |
| 2026-05-06 01:39 | 27.40079 | -110.90479 | 38927 ft | 461 kts | 149° |
| 2026-05-06 01:40 | 27.36249 | -110.86305 | 38928 ft | 460 kts | 149° |
| 2026-05-06 01:40 | 27.31651 | -110.81298 | 38927 ft | 459 kts | 149° |
| 2026-05-06 01:41 | 27.27065 | -110.76312 | 38929 ft | 458 kts | 149° |
| 2026-05-06 01:41 | 27.22512 | -110.71368 | 38935 ft | 457 kts | 149° |
| 2026-05-06 01:42 | 27.13948 | -110.62083 | 38930 ft | 455 kts | 149° |
| 2026-05-06 01:42 | 27.04851 | -110.52243 | 38931 ft | 454 kts | 149° |
| 2026-05-06 01:43 | 26.95764 | -110.42438 | 38928 ft | 453 kts | 149° |
| 2026-05-06 01:43 | 26.86713 | -110.32694 | 38932 ft | 453 kts | 148° |
| 2026-05-06 01:44 | 26.77535 | -110.22847 | 38941 ft | 462 kts | 148° |
| 2026-05-06 01:44 | 26.68172 | -110.12811 | 38932 ft | 467 kts | 148° |
| 2026-05-06 01:45 | 26.58824 | -110.02804 | 38916 ft | 461 kts | 148° |
| 2026-05-06 01:45 | 26.49654 | -109.93020 | 38911 ft | 452 kts | 148° |
| 2026-05-06 01:46 | 26.40575 | -109.83369 | 38930 ft | 451 kts | 148° |
| 2026-05-06 01:46 | 26.31364 | -109.73604 | 38937 ft | 462 kts | 147° |
| 2026-05-06 01:47 | 26.22013 | -109.63695 | 38931 ft | 471 kts | 147° |
| 2026-05-06 01:47 | 26.12511 | -109.53643 | 38914 ft | 467 kts | 147° |
| 2026-05-06 01:48 | 26.03164 | -109.43786 | 38902 ft | 459 kts | 147° |
| 2026-05-06 01:48 | 25.93914 | -109.34056 | 38933 ft | 458 kts | 147° |
| 2026-05-06 01:49 | 25.84541 | -109.24221 | 38940 ft | 470 kts | 147° |
| 2026-05-06 01:49 | 25.74923 | -109.14136 | 38939 ft | 479 kts | 147° |
| 2026-05-06 01:50 | 25.65381 | -109.04023 | 38919 ft | 477 kts | 144° |
| 2026-05-06 01:50 | 25.56294 | -108.93480 | 38891 ft | 466 kts | 144° |
| 2026-05-06 01:51 | 25.47378 | -108.83297 | 38907 ft | 460 kts | 144° |
| 2026-05-06 01:51 | 25.38374 | -108.73059 | 38896 ft | 469 kts | 144° |
| 2026-05-06 01:52 | 25.29192 | -108.62642 | 38878 ft | 475 kts | 143° |
| 2026-05-06 01:52 | 25.19966 | -108.52220 | 38853 ft | 471 kts | 143° |
| 2026-05-06 01:53 | 25.10883 | -108.41980 | 38837 ft | 462 kts | 143° |
| 2026-05-06 01:53 | 25.01941 | -108.31911 | 38845 ft | 460 kts | 143° |
| 2026-05-06 01:54 | 24.92899 | -108.21749 | 38844 ft | 470 kts | 143° |
| 2026-05-06 01:54 | 24.83687 | -108.11410 | 38834 ft | 479 kts | 143° |
| 2026-05-06 01:55 | 24.74367 | -108.00959 | 38807 ft | 475 kts | 143° |
| 2026-05-06 01:55 | 24.65189 | -107.90697 | 38803 ft | 465 kts | 143° |
| 2026-05-06 01:56 | 24.56145 | -107.80618 | 38830 ft | 462 kts | 142° |
| 2026-05-06 01:56 | 24.48517 | -107.72141 | 38829 ft | 470 kts | 142° |
| 2026-05-06 01:57 | 24.43897 | -107.67012 | 38826 ft | 474 kts | 142° |
| 2026-05-06 01:57 | 24.39269 | -107.61872 | 38819 ft | 477 kts | 142° |
| 2026-05-06 01:58 | 24.34597 | -107.56690 | 38819 ft | 478 kts | 142° |
| 2026-05-06 01:58 | 24.29919 | -107.51506 | 38815 ft | 477 kts | 142° |
| 2026-05-06 01:59 | 24.25257 | -107.46347 | 38812 ft | 475 kts | 142° |
| 2026-05-06 01:59 | 24.20615 | -107.41218 | 38816 ft | 473 kts | 142° |
| 2026-05-06 02:00 | 24.15977 | -107.36098 | 38813 ft | 472 kts | 142° |
| 2026-05-06 02:00 | 24.11396 | -107.31048 | 38820 ft | 470 kts | 142° |
| 2026-05-06 02:01 | 24.06800 | -107.25986 | 38815 ft | 468 kts | 142° |
| 2026-05-06 02:01 | 24.02206 | -107.20932 | 38815 ft | 467 kts | 141° |
| 2026-05-06 02:02 | 23.97629 | -107.15903 | 38827 ft | 466 kts | 141° |
| 2026-05-06 02:02 | 23.93057 | -107.10885 | 38827 ft | 465 kts | 141° |
| 2026-05-06 02:03 | 23.88487 | -107.05873 | 38836 ft | 465 kts | 141° |
| 2026-05-06 02:03 | 23.83909 | -107.00859 | 38840 ft | 466 kts | 141° |
| 2026-05-06 02:04 | 23.79341 | -106.95862 | 38854 ft | 469 kts | 141° |
| 2026-05-06 02:04 | 23.74709 | -106.90800 | 38850 ft | 473 kts | 141° |
| 2026-05-06 02:05 | 23.70046 | -106.85707 | 38853 ft | 475 kts | 141° |
| 2026-05-06 02:05 | 23.65369 | -106.80603 | 38851 ft | 475 kts | 141° |
| 2026-05-06 02:06 | 23.60698 | -106.75512 | 38857 ft | 474 kts | 141° |
| 2026-05-06 02:06 | 23.56040 | -106.70439 | 38857 ft | 473 kts | 141° |
| 2026-05-06 02:07 | 23.51418 | -106.65412 | 38853 ft | 471 kts | 141° |
| 2026-05-06 02:07 | 23.46788 | -106.60378 | 38866 ft | 469 kts | 141° |
| 2026-05-06 02:08 | 23.42187 | -106.55373 | 38867 ft | 466 kts | 140° |
| 2026-05-06 02:08 | 23.37605 | -106.50396 | 38878 ft | 464 kts | 140° |
| 2026-05-06 02:09 | 23.33033 | -106.45434 | 38887 ft | 463 kts | 140° |
| 2026-05-06 02:09 | 23.28473 | -106.40492 | 38898 ft | 463 kts | 140° |
| 2026-05-06 02:10 | 23.21060 | -106.32465 | 38912 ft | 464 kts | 140° |
| 2026-05-06 02:10 | 23.10721 | -106.24667 | 38910 ft | 447 kts | 164° |
| 2026-05-06 02:11 | 22.99006 | -106.19837 | 38908 ft | 455 kts | 163° |
| 2026-05-06 02:11 | 22.87290 | -106.14873 | 38878 ft | 452 kts | 163° |
| 2026-05-06 02:12 | 22.75617 | -106.09929 | 38893 ft | 450 kts | 163° |
| 2026-05-06 02:12 | 22.63929 | -106.04992 | 38891 ft | 450 kts | 163° |
| 2026-05-06 02:13 | 22.56839 | -106.02000 | 38896 ft | 451 kts | 163° |
| 2026-05-06 02:13 | 22.53901 | -106.00762 | 38782 ft | 456 kts | 163° |
| 2026-05-06 02:13 | 22.50932 | -105.99512 | 38535 ft | 460 kts | 163° |
| 2026-05-06 02:14 | 22.47942 | -105.98253 | 37975 ft | 462 kts | 163° |
| 2026-05-06 02:14 | 22.44969 | -105.96999 | 37440 ft | 457 kts | 163° |
| 2026-05-06 02:14 | 22.42009 | -105.95751 | 36807 ft | 456 kts | 163° |
| 2026-05-06 02:14 | 22.39053 | -105.94506 | 36194 ft | 455 kts | 163° |
| 2026-05-06 02:15 | 22.36134 | -105.93278 | 35553 ft | 455 kts | 163° |
| 2026-05-06 02:15 | 22.33147 | -105.92023 | 34853 ft | 456 kts | 163° |
| 2026-05-06 02:15 | 22.30218 | -105.90793 | 34137 ft | 458 kts | 163° |
| 2026-05-06 02:15 | 22.27237 | -105.89542 | 33331 ft | 460 kts | 163° |
| 2026-05-06 02:16 | 22.24256 | -105.88291 | 32529 ft | 460 kts | 163° |
| 2026-05-06 02:16 | 22.21272 | -105.87038 | 31740 ft | 460 kts | 163° |
| 2026-05-06 02:16 | 22.18292 | -105.85787 | 31053 ft | 458 kts | 163° |
| 2026-05-06 02:16 | 22.15353 | -105.84552 | 30537 ft | 451 kts | 163° |
| 2026-05-06 02:17 | 22.12445 | -105.83332 | 30006 ft | 445 kts | 162° |
| 2026-05-06 02:17 | 22.09580 | -105.82132 | 29327 ft | 439 kts | 162° |
| 2026-05-06 02:17 | 22.06773 | -105.80956 | 28878 ft | 430 kts | 162° |
| 2026-05-06 02:17 | 22.04007 | -105.79796 | 28326 ft | 424 kts | 163° |
| 2026-05-06 02:18 | 22.01266 | -105.78649 | 27758 ft | 419 kts | 163° |
| 2026-05-06 02:18 | 21.99473 | -105.77900 | 27392 ft | 416 kts | 162° |
| 2026-05-06 02:18 | 21.96781 | -105.76774 | 26836 ft | 412 kts | 162° |
| 2026-05-06 02:18 | 21.94129 | -105.75666 | 26292 ft | 408 kts | 162° |
| 2026-05-06 02:19 | 21.91488 | -105.74563 | 25748 ft | 404 kts | 162° |
| 2026-05-06 02:19 | 21.88875 | -105.73472 | 25211 ft | 401 kts | 162° |
| 2026-05-06 02:19 | 21.86278 | -105.72388 | 24663 ft | 399 kts | 162° |
| 2026-05-06 02:19 | 21.83721 | -105.71320 | 24116 ft | 397 kts | 162° |
| 2026-05-06 02:20 | 21.78591 | -105.69172 | 22941 ft | 394 kts | 161° |
| 2026-05-06 02:20 | 21.76164 | -105.67822 | 22439 ft | 393 kts | 153° |
| 2026-05-06 02:20 | 21.73836 | -105.66290 | 21956 ft | 391 kts | 151° |
| 2026-05-06 02:21 | 21.71546 | -105.64726 | 21479 ft | 388 kts | 151° |
| 2026-05-06 02:21 | 21.69285 | -105.63178 | 21010 ft | 384 kts | 151° |
| 2026-05-06 02:21 | 21.67028 | -105.61649 | 20555 ft | 384 kts | 151° |
| 2026-05-06 02:21 | 21.64745 | -105.60121 | 20097 ft | 387 kts | 151° |
| 2026-05-06 02:22 | 21.62454 | -105.58600 | 19613 ft | 386 kts | 151° |
| 2026-05-06 02:22 | 21.60172 | -105.57091 | 19141 ft | 383 kts | 151° |
| 2026-05-06 02:22 | 21.57933 | -105.55616 | 18676 ft | 381 kts | 150° |
| 2026-05-06 02:22 | 21.55680 | -105.54133 | 18205 ft | 379 kts | 150° |
| 2026-05-06 02:23 | 21.53426 | -105.52652 | 17704 ft | 377 kts | 150° |
| 2026-05-06 02:23 | 21.51207 | -105.51192 | 17222 ft | 373 kts | 150° |
| 2026-05-06 02:23 | 21.48992 | -105.49736 | 16793 ft | 370 kts | 150° |
| 2026-05-06 02:23 | 21.46744 | -105.48260 | 16346 ft | 368 kts | 150° |
| 2026-05-06 02:24 | 21.44563 | -105.46828 | 15915 ft | 367 kts | 150° |
| 2026-05-06 02:24 | 21.42384 | -105.45398 | 15469 ft | 365 kts | 150° |
| 2026-05-06 02:24 | 21.40224 | -105.43981 | 15034 ft | 363 kts | 150° |
| 2026-05-06 02:24 | 21.38072 | -105.42569 | 14585 ft | 362 kts | 150° |
| 2026-05-06 02:25 | 21.35921 | -105.41158 | 14134 ft | 362 kts | 150° |
| 2026-05-06 02:25 | 21.33700 | -105.39702 | 13663 ft | 359 kts | 150° |
| 2026-05-06 02:25 | 21.31677 | -105.38376 | 13215 ft | 355 kts | 150° |